sensor_id;sensor_type;location;lat;lon;timestamp;P1;durP1;ratioP1;P2;durP2;ratioP2
16760;SDS011;8498;52.516;13.790;2024-02-21T00:04:16;19.83;;;5.27;;
16760;SDS011;8498;52.516;13.790;2024-02-21T00:09:38;20.13;;;5.73;;
16760;SDS011;8498;52.516;13.790;2024-02-21T00:15:01;20.57;;;5.67;;
16760;SDS011;8498;52.516;13.790;2024-02-21T00:20:23;17.57;;;5.30;;
16760;SDS011;8498;52.516;13.790;2024-02-21T00:25:47;14.93;;;4.93;;
16760;SDS011;8498;52.516;13.790;2024-02-21T00:31:10;21.60;;;5.87;;
16760;SDS011;8498;52.516;13.790;2024-02-21T00:36:33;19.13;;;5.60;;
16760;SDS011;8498;52.516;13.790;2024-02-21T00:41:55;19.37;;;5.13;;
16760;SDS011;8498;52.516;13.790;2024-02-21T00:47:17;21.07;;;5.60;;
16760;SDS011;8498;52.516;13.790;2024-02-21T00:52:39;13.70;;;5.30;;
16760;SDS011;8498;52.516;13.790;2024-02-21T00:58:01;16.23;;;5.33;;
16760;SDS011;8498;52.516;13.790;2024-02-21T01:03:24;19.37;;;5.07;;
16760;SDS011;8498;52.516;13.790;2024-02-21T01:08:46;15.00;;;4.50;;
16760;SDS011;8498;52.516;13.790;2024-02-21T01:14:09;18.43;;;5.00;;
16760;SDS011;8498;52.516;13.790;2024-02-21T01:19:33;15.43;;;3.90;;
16760;SDS011;8498;52.516;13.790;2024-02-21T01:24:55;18.37;;;4.73;;
16760;SDS011;8498;52.516;13.790;2024-02-21T01:30:17;21.27;;;4.50;;
16760;SDS011;8498;52.516;13.790;2024-02-21T01:35:39;16.10;;;4.57;;
16760;SDS011;8498;52.516;13.790;2024-02-21T01:41:02;16.40;;;5.03;;
16760;SDS011;8498;52.516;13.790;2024-02-21T01:46:25;11.20;;;4.23;;
16760;SDS011;8498;52.516;13.790;2024-02-21T01:51:52;20.23;;;4.40;;
16760;SDS011;8498;52.516;13.790;2024-02-21T01:57:15;15.27;;;4.60;;
16760;SDS011;8498;52.516;13.790;2024-02-21T02:02:37;22.33;;;4.03;;
16760;SDS011;8498;52.516;13.790;2024-02-21T02:08:01;18.43;;;4.57;;
16760;SDS011;8498;52.516;13.790;2024-02-21T02:13:23;13.63;;;4.67;;
16760;SDS011;8498;52.516;13.790;2024-02-21T02:18:46;16.40;;;4.23;;
16760;SDS011;8498;52.516;13.790;2024-02-21T02:24:09;12.47;;;4.40;;
16760;SDS011;8498;52.516;13.790;2024-02-21T02:29:32;12.60;;;4.57;;
16760;SDS011;8498;52.516;13.790;2024-02-21T02:34:54;17.57;;;4.23;;
16760;SDS011;8498;52.516;13.790;2024-02-21T02:40:18;13.57;;;3.87;;
16760;SDS011;8498;52.516;13.790;2024-02-21T02:45:40;15.00;;;4.57;;
16760;SDS011;8498;52.516;13.790;2024-02-21T02:51:02;17.07;;;3.83;;
16760;SDS011;8498;52.516;13.790;2024-02-21T02:56:25;13.10;;;3.90;;
16760;SDS011;8498;52.516;13.790;2024-02-21T03:01:47;14.03;;;4.90;;
16760;SDS011;8498;52.516;13.790;2024-02-21T03:07:09;14.87;;;4.83;;
16760;SDS011;8498;52.516;13.790;2024-02-21T03:12:33;14.30;;;5.30;;
16760;SDS011;8498;52.516;13.790;2024-02-21T03:17:55;11.33;;;3.90;;
16760;SDS011;8498;52.516;13.790;2024-02-21T03:23:17;24.60;;;4.67;;
16760;SDS011;8498;52.516;13.790;2024-02-21T03:28:40;20.03;;;5.00;;
16760;SDS011;8498;52.516;13.790;2024-02-21T03:34:02;19.23;;;5.33;;
16760;SDS011;8498;52.516;13.790;2024-02-21T03:39:25;15.07;;;4.60;;
16760;SDS011;8498;52.516;13.790;2024-02-21T03:44:47;15.47;;;4.70;;
16760;SDS011;8498;52.516;13.790;2024-02-21T03:50:09;21.63;;;4.83;;
16760;SDS011;8498;52.516;13.790;2024-02-21T03:55:32;17.93;;;4.70;;
16760;SDS011;8498;52.516;13.790;2024-02-21T04:00:54;13.73;;;4.23;;
16760;SDS011;8498;52.516;13.790;2024-02-21T04:06:16;12.83;;;4.50;;
16760;SDS011;8498;52.516;13.790;2024-02-21T04:11:39;15.90;;;5.27;;
16760;SDS011;8498;52.516;13.790;2024-02-21T04:17:01;8.87;;;4.90;;
16760;SDS011;8498;52.516;13.790;2024-02-21T04:22:23;20.47;;;4.90;;
16760;SDS011;8498;52.516;13.790;2024-02-21T04:27:45;17.40;;;5.37;;
16760;SDS011;8498;52.516;13.790;2024-02-21T04:33:07;12.77;;;4.90;;
16760;SDS011;8498;52.516;13.790;2024-02-21T04:38:30;11.00;;;4.67;;
16760;SDS011;8498;52.516;13.790;2024-02-21T04:43:52;24.67;;;5.23;;
16760;SDS011;8498;52.516;13.790;2024-02-21T04:49:15;14.80;;;5.10;;
16760;SDS011;8498;52.516;13.790;2024-02-21T04:54:37;17.67;;;5.10;;
16760;SDS011;8498;52.516;13.790;2024-02-21T04:59:59;14.40;;;5.20;;
16760;SDS011;8498;52.516;13.790;2024-02-21T05:05:22;14.70;;;5.17;;
16760;SDS011;8498;52.516;13.790;2024-02-21T05:10:44;20.43;;;5.97;;
16760;SDS011;8498;52.516;13.790;2024-02-21T05:16:06;14.57;;;5.23;;
16760;SDS011;8498;52.516;13.790;2024-02-21T05:21:29;11.87;;;4.93;;
16760;SDS011;8498;52.516;13.790;2024-02-21T05:26:51;16.13;;;5.50;;
16760;SDS011;8498;52.516;13.790;2024-02-21T05:32:13;21.00;;;5.10;;
16760;SDS011;8498;52.516;13.790;2024-02-21T05:37:35;25.10;;;7.70;;
16760;SDS011;8498;52.516;13.790;2024-02-21T05:42:57;19.30;;;6.63;;
16760;SDS011;8498;52.516;13.790;2024-02-21T05:48:20;21.27;;;6.57;;
16760;SDS011;8498;52.516;13.790;2024-02-21T05:53:42;23.10;;;6.57;;
16760;SDS011;8498;52.516;13.790;2024-02-21T05:59:04;19.83;;;6.50;;
16760;SDS011;8498;52.516;13.790;2024-02-21T06:04:27;13.27;;;5.40;;
16760;SDS011;8498;52.516;13.790;2024-02-21T06:09:50;23.83;;;7.00;;
16760;SDS011;8498;52.516;13.790;2024-02-21T06:15:12;31.13;;;7.60;;
16760;SDS011;8498;52.516;13.790;2024-02-21T06:20:34;25.03;;;6.53;;
16760;SDS011;8498;52.516;13.790;2024-02-21T06:25:58;13.97;;;5.80;;
16760;SDS011;8498;52.516;13.790;2024-02-21T06:31:21;22.83;;;6.07;;
16760;SDS011;8498;52.516;13.790;2024-02-21T06:36:44;20.57;;;5.90;;
16760;SDS011;8498;52.516;13.790;2024-02-21T06:42:06;18.37;;;5.50;;
16760;SDS011;8498;52.516;13.790;2024-02-21T06:47:28;19.00;;;6.03;;
16760;SDS011;8498;52.516;13.790;2024-02-21T06:52:50;18.40;;;6.27;;
16760;SDS011;8498;52.516;13.790;2024-02-21T06:58:12;19.20;;;5.80;;
16760;SDS011;8498;52.516;13.790;2024-02-21T07:03:35;20.57;;;6.33;;
16760;SDS011;8498;52.516;13.790;2024-02-21T07:08:57;21.23;;;5.37;;
16760;SDS011;8498;52.516;13.790;2024-02-21T07:14:19;24.13;;;5.97;;
16760;SDS011;8498;52.516;13.790;2024-02-21T07:19:42;13.23;;;5.70;;
16760;SDS011;8498;52.516;13.790;2024-02-21T07:25:04;19.30;;;5.33;;
16760;SDS011;8498;52.516;13.790;2024-02-21T07:30:27;20.50;;;6.37;;
16760;SDS011;8498;52.516;13.790;2024-02-21T07:35:50;22.03;;;6.17;;
16760;SDS011;8498;52.516;13.790;2024-02-21T07:41:12;13.50;;;5.83;;
16760;SDS011;8498;52.516;13.790;2024-02-21T07:46:35;21.07;;;6.77;;
16760;SDS011;8498;52.516;13.790;2024-02-21T07:51:57;16.83;;;6.00;;
16760;SDS011;8498;52.516;13.790;2024-02-21T07:57:19;15.63;;;6.60;;
16760;SDS011;8498;52.516;13.790;2024-02-21T08:02:41;19.80;;;5.70;;
16760;SDS011;8498;52.516;13.790;2024-02-21T08:08:05;20.23;;;5.60;;
16760;SDS011;8498;52.516;13.790;2024-02-21T08:13:29;24.67;;;6.13;;
16760;SDS011;8498;52.516;13.790;2024-02-21T08:18:51;20.50;;;7.10;;
16760;SDS011;8498;52.516;13.790;2024-02-21T08:24:14;17.83;;;5.70;;
16760;SDS011;8498;52.516;13.790;2024-02-21T08:29:36;19.00;;;5.73;;
16760;SDS011;8498;52.516;13.790;2024-02-21T08:34:58;15.33;;;6.23;;
16760;SDS011;8498;52.516;13.790;2024-02-21T08:40:22;16.30;;;5.83;;
16760;SDS011;8498;52.516;13.790;2024-02-21T08:45:44;16.10;;;6.23;;
16760;SDS011;8498;52.516;13.790;2024-02-21T08:51:06;17.80;;;5.27;;
16760;SDS011;8498;52.516;13.790;2024-02-21T08:56:29;19.50;;;6.20;;
16760;SDS011;8498;52.516;13.790;2024-02-21T09:01:52;17.77;;;6.40;;
16760;SDS011;8498;52.516;13.790;2024-02-21T09:07:15;15.23;;;6.17;;
16760;SDS011;8498;52.516;13.790;2024-02-21T09:12:37;16.77;;;6.27;;
16760;SDS011;8498;52.516;13.790;2024-02-21T09:17:59;23.97;;;7.23;;
16760;SDS011;8498;52.516;13.790;2024-02-21T09:23:23;13.77;;;6.67;;
16760;SDS011;8498;52.516;13.790;2024-02-21T09:28:46;15.73;;;5.97;;
16760;SDS011;8498;52.516;13.790;2024-02-21T09:34:09;20.57;;;6.57;;
16760;SDS011;8498;52.516;13.790;2024-02-21T09:39:33;24.60;;;7.47;;
16760;SDS011;8498;52.516;13.790;2024-02-21T09:44:55;20.00;;;7.00;;
16760;SDS011;8498;52.516;13.790;2024-02-21T09:50:17;16.93;;;6.40;;
16760;SDS011;8498;52.516;13.790;2024-02-21T09:55:40;17.77;;;7.60;;
16760;SDS011;8498;52.516;13.790;2024-02-21T10:01:03;20.77;;;7.67;;
16760;SDS011;8498;52.516;13.790;2024-02-21T10:06:46;27.27;;;7.47;;
16760;SDS011;8498;52.516;13.790;2024-02-21T10:12:10;22.57;;;7.13;;
16760;SDS011;8498;52.516;13.790;2024-02-21T10:17:35;19.53;;;7.73;;
16760;SDS011;8498;52.516;13.790;2024-02-21T10:23:01;18.20;;;7.10;;
16760;SDS011;8498;52.516;13.790;2024-02-21T10:28:25;17.80;;;6.93;;
16760;SDS011;8498;52.516;13.790;2024-02-21T10:33:53;16.20;;;7.20;;
16760;SDS011;8498;52.516;13.790;2024-02-21T10:39:18;23.00;;;7.93;;
16760;SDS011;8498;52.516;13.790;2024-02-21T10:44:41;19.17;;;7.27;;
16760;SDS011;8498;52.516;13.790;2024-02-21T10:50:04;20.87;;;7.07;;
16760;SDS011;8498;52.516;13.790;2024-02-21T10:55:32;20.13;;;7.07;;
16760;SDS011;8498;52.516;13.790;2024-02-21T11:01:01;22.70;;;6.60;;
16760;SDS011;8498;52.516;13.790;2024-02-21T11:06:25;13.43;;;6.27;;
16760;SDS011;8498;52.516;13.790;2024-02-21T11:11:50;15.67;;;7.17;;
16760;SDS011;8498;52.516;13.790;2024-02-21T11:22:49;16.07;;;6.47;;
16760;SDS011;8498;52.516;13.790;2024-02-21T11:28:11;11.60;;;5.70;;
16760;SDS011;8498;52.516;13.790;2024-02-21T11:33:38;16.87;;;6.60;;
16760;SDS011;8498;52.516;13.790;2024-02-21T11:39:04;11.10;;;5.20;;
16760;SDS011;8498;52.516;13.790;2024-02-21T11:44:27;18.93;;;5.87;;
16760;SDS011;8498;52.516;13.790;2024-02-21T11:49:49;12.90;;;5.13;;
16760;SDS011;8498;52.516;13.790;2024-02-21T11:55:15;15.40;;;6.30;;
16760;SDS011;8498;52.516;13.790;2024-02-21T12:00:37;12.87;;;5.40;;
16760;SDS011;8498;52.516;13.790;2024-02-21T12:06:01;10.37;;;5.63;;
16760;SDS011;8498;52.516;13.790;2024-02-21T12:11:28;8.43;;;5.03;;
16760;SDS011;8498;52.516;13.790;2024-02-21T12:16:50;12.37;;;5.70;;
16760;SDS011;8498;52.516;13.790;2024-02-21T12:22:18;13.20;;;5.10;;
16760;SDS011;8498;52.516;13.790;2024-02-21T12:27:41;8.00;;;4.77;;
16760;SDS011;8498;52.516;13.790;2024-02-21T12:33:03;7.17;;;4.77;;
16760;SDS011;8498;52.516;13.790;2024-02-21T12:38:26;11.20;;;4.90;;
16760;SDS011;8498;52.516;13.790;2024-02-21T12:43:48;5.30;;;4.23;;
16760;SDS011;8498;52.516;13.790;2024-02-21T12:49:10;6.10;;;3.80;;
16760;SDS011;8498;52.516;13.790;2024-02-21T12:54:33;10.67;;;4.13;;
16760;SDS011;8498;52.516;13.790;2024-02-21T12:59:56;8.07;;;4.20;;
16760;SDS011;8498;52.516;13.790;2024-02-21T13:05:18;13.90;;;4.03;;
16760;SDS011;8498;52.516;13.790;2024-02-21T13:10:40;8.70;;;3.63;;
16760;SDS011;8498;52.516;13.790;2024-02-21T13:16:02;6.77;;;3.57;;
16760;SDS011;8498;52.516;13.790;2024-02-21T13:21:25;6.03;;;3.37;;
16760;SDS011;8498;52.516;13.790;2024-02-21T13:26:47;12.43;;;3.17;;
16760;SDS011;8498;52.516;13.790;2024-02-21T13:32:09;5.47;;;3.73;;
16760;SDS011;8498;52.516;13.790;2024-02-21T13:37:31;11.57;;;3.87;;
16760;SDS011;8498;52.516;13.790;2024-02-21T13:42:54;11.30;;;4.90;;
16760;SDS011;8498;52.516;13.790;2024-02-21T13:48:16;9.83;;;4.20;;
16760;SDS011;8498;52.516;13.790;2024-02-21T13:53:38;13.97;;;5.07;;
16760;SDS011;8498;52.516;13.790;2024-02-21T13:59:01;12.37;;;4.17;;
16760;SDS011;8498;52.516;13.790;2024-02-21T14:04:23;9.97;;;4.10;;
16760;SDS011;8498;52.516;13.790;2024-02-21T14:09:45;12.97;;;4.17;;
16760;SDS011;8498;52.516;13.790;2024-02-21T14:15:07;8.90;;;3.90;;
16760;SDS011;8498;52.516;13.790;2024-02-21T14:20:31;9.53;;;4.33;;
16760;SDS011;8498;52.516;13.790;2024-02-21T14:25:54;9.60;;;3.80;;
16760;SDS011;8498;52.516;13.790;2024-02-21T14:31:16;10.73;;;3.83;;
16760;SDS011;8498;52.516;13.790;2024-02-21T14:36:39;6.33;;;3.53;;
16760;SDS011;8498;52.516;13.790;2024-02-21T14:42:02;7.93;;;3.23;;
16760;SDS011;8498;52.516;13.790;2024-02-21T14:47:24;6.53;;;3.40;;
16760;SDS011;8498;52.516;13.790;2024-02-21T14:52:46;6.70;;;3.47;;
16760;SDS011;8498;52.516;13.790;2024-02-21T14:58:08;8.67;;;3.17;;
16760;SDS011;8498;52.516;13.790;2024-02-21T15:03:31;8.77;;;3.60;;
16760;SDS011;8498;52.516;13.790;2024-02-21T15:08:54;10.00;;;3.30;;
16760;SDS011;8498;52.516;13.790;2024-02-21T15:14:16;9.00;;;4.13;;
16760;SDS011;8498;52.516;13.790;2024-02-21T15:19:38;7.10;;;3.63;;
16760;SDS011;8498;52.516;13.790;2024-02-21T15:25:06;5.67;;;2.80;;
16760;SDS011;8498;52.516;13.790;2024-02-21T15:30:28;7.00;;;3.27;;
16760;SDS011;8498;52.516;13.790;2024-02-21T15:35:53;6.40;;;2.73;;
16760;SDS011;8498;52.516;13.790;2024-02-21T15:41:17;11.57;;;3.40;;
16760;SDS011;8498;52.516;13.790;2024-02-21T15:46:39;13.60;;;2.93;;
16760;SDS011;8498;52.516;13.790;2024-02-21T15:52:01;7.43;;;3.07;;
16760;SDS011;8498;52.516;13.790;2024-02-21T15:57:24;10.03;;;3.93;;
16760;SDS011;8498;52.516;13.790;2024-02-21T16:02:46;11.90;;;3.60;;
16760;SDS011;8498;52.516;13.790;2024-02-21T16:08:08;10.17;;;3.67;;
16760;SDS011;8498;52.516;13.790;2024-02-21T16:13:30;7.50;;;3.80;;
16760;SDS011;8498;52.516;13.790;2024-02-21T16:18:52;6.53;;;3.43;;
16760;SDS011;8498;52.516;13.790;2024-02-21T16:24:15;7.33;;;3.40;;
16760;SDS011;8498;52.516;13.790;2024-02-21T16:29:39;8.07;;;3.17;;
16760;SDS011;8498;52.516;13.790;2024-02-21T16:35:01;8.80;;;3.60;;
16760;SDS011;8498;52.516;13.790;2024-02-21T16:40:24;9.77;;;3.47;;
16760;SDS011;8498;52.516;13.790;2024-02-21T16:45:47;12.40;;;3.63;;
16760;SDS011;8498;52.516;13.790;2024-02-21T16:51:10;8.57;;;3.73;;
16760;SDS011;8498;52.516;13.790;2024-02-21T16:56:32;8.27;;;3.73;;
16760;SDS011;8498;52.516;13.790;2024-02-21T17:01:54;9.73;;;3.40;;
16760;SDS011;8498;52.516;13.790;2024-02-21T17:07:17;8.50;;;3.40;;
16760;SDS011;8498;52.516;13.790;2024-02-21T17:12:39;6.67;;;3.83;;
16760;SDS011;8498;52.516;13.790;2024-02-21T17:18:02;4.77;;;2.83;;
16760;SDS011;8498;52.516;13.790;2024-02-21T17:23:25;7.63;;;3.53;;
16760;SDS011;8498;52.516;13.790;2024-02-21T17:28:48;10.37;;;3.70;;
16760;SDS011;8498;52.516;13.790;2024-02-21T17:34:10;8.10;;;4.00;;
16760;SDS011;8498;52.516;13.790;2024-02-21T17:39:32;5.87;;;3.30;;
16760;SDS011;8498;52.516;13.790;2024-02-21T17:44:56;4.23;;;3.13;;
16760;SDS011;8498;52.516;13.790;2024-02-21T17:50:21;10.57;;;3.73;;
16760;SDS011;8498;52.516;13.790;2024-02-21T17:55:44;6.87;;;3.10;;
16760;SDS011;8498;52.516;13.790;2024-02-21T18:01:06;5.63;;;3.20;;
16760;SDS011;8498;52.516;13.790;2024-02-21T18:06:28;12.73;;;4.10;;
16760;SDS011;8498;52.516;13.790;2024-02-21T18:11:52;8.33;;;5.23;;
16760;SDS011;8498;52.516;13.790;2024-02-21T18:17:15;7.37;;;3.90;;
16760;SDS011;8498;52.516;13.790;2024-02-21T18:22:37;6.00;;;2.90;;
16760;SDS011;8498;52.516;13.790;2024-02-21T18:27:59;7.37;;;3.00;;
16760;SDS011;8498;52.516;13.790;2024-02-21T18:33:23;8.80;;;3.00;;
16760;SDS011;8498;52.516;13.790;2024-02-21T18:38:45;6.40;;;2.90;;
16760;SDS011;8498;52.516;13.790;2024-02-21T18:44:07;2.70;;;2.50;;
16760;SDS011;8498;52.516;13.790;2024-02-21T18:49:30;4.83;;;2.73;;
16760;SDS011;8498;52.516;13.790;2024-02-21T18:54:52;4.63;;;3.17;;
16760;SDS011;8498;52.516;13.790;2024-02-21T19:00:14;5.57;;;2.93;;
16760;SDS011;8498;52.516;13.790;2024-02-21T19:05:40;9.27;;;2.90;;
16760;SDS011;8498;52.516;13.790;2024-02-21T19:11:02;6.93;;;3.23;;
16760;SDS011;8498;52.516;13.790;2024-02-21T19:16:25;10.30;;;3.50;;
16760;SDS011;8498;52.516;13.790;2024-02-21T19:21:48;5.07;;;3.13;;
16760;SDS011;8498;52.516;13.790;2024-02-21T19:27:11;8.97;;;3.87;;
16760;SDS011;8498;52.516;13.790;2024-02-21T19:32:33;8.13;;;3.93;;
16760;SDS011;8498;52.516;13.790;2024-02-21T19:37:58;5.63;;;3.90;;
16760;SDS011;8498;52.516;13.790;2024-02-21T19:43:25;5.77;;;3.87;;
16760;SDS011;8498;52.516;13.790;2024-02-21T19:48:47;6.07;;;3.93;;
16760;SDS011;8498;52.516;13.790;2024-02-21T19:54:11;9.43;;;4.20;;
16760;SDS011;8498;52.516;13.790;2024-02-21T19:59:45;9.33;;;4.23;;
16760;SDS011;8498;52.516;13.790;2024-02-21T20:05:08;8.77;;;4.50;;
16760;SDS011;8498;52.516;13.790;2024-02-21T20:10:32;7.83;;;4.27;;
16760;SDS011;8498;52.516;13.790;2024-02-21T20:15:54;9.57;;;4.30;;
16760;SDS011;8498;52.516;13.790;2024-02-21T20:21:16;6.93;;;4.30;;
16760;SDS011;8498;52.516;13.790;2024-02-21T20:26:45;10.70;;;4.53;;
16760;SDS011;8498;52.516;13.790;2024-02-21T20:32:08;12.97;;;4.37;;
16760;SDS011;8498;52.516;13.790;2024-02-21T20:37:30;5.70;;;3.80;;
16760;SDS011;8498;52.516;13.790;2024-02-21T20:42:52;8.93;;;3.90;;
16760;SDS011;8498;52.516;13.790;2024-02-21T20:48:15;6.97;;;3.97;;
16760;SDS011;8498;52.516;13.790;2024-02-21T20:53:39;5.93;;;3.67;;
16760;SDS011;8498;52.516;13.790;2024-02-21T20:59:02;6.67;;;4.27;;
16760;SDS011;8498;52.516;13.790;2024-02-21T21:04:25;8.43;;;4.07;;
16760;SDS011;8498;52.516;13.790;2024-02-21T21:09:48;9.13;;;4.23;;
16760;SDS011;8498;52.516;13.790;2024-02-21T21:15:10;9.20;;;3.43;;
16760;SDS011;8498;52.516;13.790;2024-02-21T21:20:32;5.93;;;3.60;;
16760;SDS011;8498;52.516;13.790;2024-02-21T21:25:56;7.70;;;3.70;;
16760;SDS011;8498;52.516;13.790;2024-02-21T21:31:19;8.27;;;3.83;;
16760;SDS011;8498;52.516;13.790;2024-02-21T21:36:43;7.43;;;3.53;;
16760;SDS011;8498;52.516;13.790;2024-02-21T21:42:05;7.63;;;3.60;;
16760;SDS011;8498;52.516;13.790;2024-02-21T21:47:27;4.47;;;3.43;;
16760;SDS011;8498;52.516;13.790;2024-02-21T21:52:49;7.97;;;3.40;;
16760;SDS011;8498;52.516;13.790;2024-02-21T21:58:11;5.13;;;3.30;;
16760;SDS011;8498;52.516;13.790;2024-02-21T22:03:34;8.50;;;3.90;;
16760;SDS011;8498;52.516;13.790;2024-02-21T22:08:57;6.83;;;3.53;;
16760;SDS011;8498;52.516;13.790;2024-02-21T22:14:19;7.20;;;3.17;;
16760;SDS011;8498;52.516;13.790;2024-02-21T22:19:42;7.60;;;3.23;;
16760;SDS011;8498;52.516;13.790;2024-02-21T22:25:04;8.70;;;3.87;;
16760;SDS011;8498;52.516;13.790;2024-02-21T22:30:26;7.20;;;2.97;;
16760;SDS011;8498;52.516;13.790;2024-02-21T22:35:48;10.53;;;3.37;;
16760;SDS011;8498;52.516;13.790;2024-02-21T22:41:10;3.87;;;3.00;;
16760;SDS011;8498;52.516;13.790;2024-02-21T22:46:33;9.73;;;3.90;;
16760;SDS011;8498;52.516;13.790;2024-02-21T22:51:56;5.50;;;3.23;;
16760;SDS011;8498;52.516;13.790;2024-02-21T22:57:19;9.87;;;3.67;;
16760;SDS011;8498;52.516;13.790;2024-02-21T23:02:43;5.70;;;3.07;;
16760;SDS011;8498;52.516;13.790;2024-02-21T23:08:05;9.47;;;3.43;;
16760;SDS011;8498;52.516;13.790;2024-02-21T23:13:28;10.17;;;3.10;;
16760;SDS011;8498;52.516;13.790;2024-02-21T23:18:50;5.63;;;3.10;;
16760;SDS011;8498;52.516;13.790;2024-02-21T23:24:14;6.03;;;3.23;;
16760;SDS011;8498;52.516;13.790;2024-02-21T23:29:36;7.13;;;2.97;;
16760;SDS011;8498;52.516;13.790;2024-02-21T23:34:58;10.50;;;3.30;;
16760;SDS011;8498;52.516;13.790;2024-02-21T23:40:21;5.00;;;2.97;;
16760;SDS011;8498;52.516;13.790;2024-02-21T23:45:43;9.33;;;2.80;;
16760;SDS011;8498;52.516;13.790;2024-02-21T23:51:06;6.33;;;2.77;;
16760;SDS011;8498;52.516;13.790;2024-02-21T23:56:28;4.70;;;2.93;;
